createdAt,value
2022-08-16T00:02:52.454Z,18.24
2022-08-16T00:05:48.215Z,18.15
2022-08-16T00:08:37.695Z,18.18
2022-08-16T00:11:24.811Z,18.16
2022-08-16T00:14:17.030Z,18.13
2022-08-16T00:17:18.960Z,18.15
2022-08-16T00:20:12.358Z,18.12
2022-08-16T00:22:59.627Z,18.12
2022-08-16T00:26:33.856Z,18.10
2022-08-16T00:28:54.807Z,18.08
2022-08-16T00:31:47.154Z,18.07
2022-08-16T00:34:53.281Z,18.04
2022-08-16T00:37:56.291Z,18.01
2022-08-16T00:40:50.915Z,18.00
2022-08-16T00:43:43.298Z,17.97
2022-08-16T00:46:35.523Z,17.92
2022-08-16T00:49:23.691Z,17.86
2022-08-16T00:52:29.171Z,17.83
2022-08-16T00:55:17.621Z,17.79
2022-08-16T00:58:13.198Z,17.81
2022-08-16T01:01:08.124Z,17.79
2022-08-16T01:03:56.211Z,17.83
2022-08-16T01:06:49.376Z,17.83
2022-08-16T01:09:49.379Z,17.85
2022-08-16T01:12:36.673Z,17.86
2022-08-16T01:15:27.955Z,17.87
2022-08-16T01:18:39.155Z,17.88
2022-08-16T01:21:39.781Z,17.89
2022-08-16T01:24:52.759Z,17.89
2022-08-16T01:27:45.230Z,17.90
2022-08-16T01:30:36.853Z,17.82
2022-08-16T01:33:33.359Z,17.69
2022-08-16T01:36:23.096Z,17.67
2022-08-16T01:39:16.122Z,17.63
2022-08-16T01:42:12.026Z,17.59
2022-08-16T01:45:00.014Z,17.59
2022-08-16T01:47:51.010Z,17.57
2022-08-16T01:51:09.240Z,17.64
2022-08-16T01:53:55.463Z,17.67
2022-08-16T01:56:48.139Z,17.69
2022-08-16T01:59:39.143Z,17.73
2022-08-16T02:02:29.099Z,17.74
2022-08-16T02:05:15.942Z,17.72
2022-08-16T02:08:02.797Z,17.72
2022-08-16T02:10:52.400Z,17.75
2022-08-16T02:13:41.856Z,17.78
2022-08-16T02:16:33.907Z,17.80
2022-08-16T02:19:21.777Z,17.82
2022-08-16T02:22:35.042Z,17.83
2022-08-16T02:25:18.378Z,17.83
2022-08-16T02:28:05.804Z,17.88
2022-08-16T02:30:59.589Z,17.88
2022-08-16T02:33:50.732Z,17.92
2022-08-16T02:36:50.621Z,17.90
2022-08-16T02:39:41.406Z,17.84
2022-08-16T02:42:28.725Z,17.74
2022-08-16T02:45:16.068Z,17.68
2022-08-16T02:48:29.413Z,17.66
2022-08-16T02:51:12.520Z,17.63
2022-08-16T02:54:02.155Z,17.65
2022-08-16T02:56:49.142Z,17.67
2022-08-16T02:59:36.663Z,17.64
2022-08-16T03:02:31.709Z,17.61
2022-08-16T03:05:24.073Z,17.58
2022-08-16T03:08:50.213Z,17.60
2022-08-16T03:11:21.662Z,17.57
2022-08-16T03:14:09.646Z,17.58
2022-08-16T03:17:00.880Z,17.55
2022-08-16T03:20:00.241Z,17.55
2022-08-16T03:22:56.496Z,17.52
2022-08-16T03:25:45.503Z,17.53
2022-08-16T03:28:35.705Z,17.46
2022-08-16T03:31:22.754Z,17.49
2022-08-16T03:34:10.148Z,17.46
2022-08-16T03:37:02.098Z,17.42
2022-08-16T03:39:48.955Z,17.39
2022-08-16T03:43:19.273Z,17.31
2022-08-16T03:45:53.418Z,17.28
2022-08-16T03:48:43.139Z,17.27
2022-08-16T03:51:37.645Z,17.26
2022-08-16T03:54:28.610Z,17.27
2022-08-16T03:57:16.527Z,17.24
2022-08-16T04:00:20.683Z,17.25
2022-08-16T04:03:21.492Z,17.23
2022-08-16T04:06:09.344Z,17.30
2022-08-16T04:08:56.909Z,17.26
2022-08-16T04:11:44.023Z,17.25
2022-08-16T04:14:32.676Z,17.27
2022-08-16T04:17:24.277Z,17.27
2022-08-16T04:20:29.416Z,17.31
2022-08-16T04:23:23.661Z,17.32
2022-08-16T04:26:16.689Z,17.48
2022-08-16T04:29:16.961Z,17.46
2022-08-16T04:32:10.870Z,17.60
2022-08-16T04:35:07.761Z,17.66
2022-08-16T04:37:57.571Z,17.64
2022-08-16T04:40:50.175Z,17.63
2022-08-16T04:43:39.210Z,17.69
2022-08-16T04:47:00.525Z,17.73
2022-08-16T04:49:46.097Z,17.73
2022-08-16T04:52:36.847Z,17.80
2022-08-16T04:55:31.652Z,17.97
2022-08-16T04:58:38.408Z,18.02
2022-08-16T05:01:55.900Z,18.16
2022-08-16T05:04:34.798Z,18.29
2022-08-16T05:07:21.356Z,18.58
2022-08-16T05:10:23.043Z,18.99
2022-08-16T05:13:15.558Z,19.74
2022-08-16T05:16:03.163Z,19.80
2022-08-16T05:18:53.896Z,19.93
2022-08-16T05:21:44.341Z,20.04
2022-08-16T05:24:33.283Z,20.12
2022-08-16T05:27:24.129Z,20.25
2022-08-16T05:30:34.455Z,20.33
2022-08-16T05:33:22.568Z,20.56
2022-08-16T05:36:14.597Z,20.68
2022-08-16T05:39:10.132Z,20.71
2022-08-16T05:41:58.584Z,20.82
2022-08-16T05:44:46.719Z,20.77
2022-08-16T05:47:43.437Z,20.77
2022-08-16T05:50:34.375Z,20.81
2022-08-16T05:53:24.215Z,20.70
2022-08-16T05:56:34.114Z,20.59
2022-08-16T05:59:22.167Z,20.46
2022-08-16T06:02:10.549Z,20.51
2022-08-16T06:04:59.780Z,20.56
2022-08-16T06:07:59.049Z,20.56
2022-08-16T06:11:02.593Z,20.48
2022-08-16T06:13:57.339Z,20.64
2022-08-16T06:17:05.424Z,20.75
2022-08-16T06:19:54.466Z,20.81
2022-08-16T06:22:47.795Z,20.82
2022-08-16T06:25:53.307Z,21.01
2022-08-16T06:28:43.106Z,21.20
2022-08-16T06:31:38.399Z,21.39
2022-08-16T06:34:56.833Z,21.87
2022-08-16T06:37:47.574Z,22.39
2022-08-16T06:40:38.428Z,22.37
2022-08-16T06:43:27.371Z,22.31
2022-08-16T06:46:31.782Z,22.02
2022-08-16T06:49:22.414Z,22.05
2022-08-16T06:52:55.459Z,21.85
2022-08-16T06:55:18.653Z,21.64
2022-08-16T06:58:22.638Z,21.64
2022-08-16T07:01:24.328Z,21.68
2022-08-16T07:04:32.860Z,21.59
2022-08-16T07:07:24.004Z,21.63
2022-08-16T07:10:25.623Z,21.70
2022-08-16T07:13:19.684Z,21.69
2022-08-16T07:16:21.285Z,21.72
2022-08-16T07:19:16.961Z,21.86
2022-08-16T07:22:07.089Z,22.05
2022-08-16T07:25:16.654Z,21.89
2022-08-16T07:28:05.510Z,22.13
2022-08-16T07:31:00.124Z,22.14
2022-08-16T07:33:55.017Z,22.29
2022-08-16T07:36:58.213Z,22.28
2022-08-16T07:39:54.643Z,22.25
2022-08-16T07:42:42.089Z,22.20
2022-08-16T07:45:30.721Z,22.26
2022-08-16T07:48:22.141Z,22.39
2022-08-16T07:51:13.649Z,22.50
2022-08-16T07:54:10.212Z,22.59
2022-08-16T07:57:02.105Z,22.65
2022-08-16T07:59:50.891Z,22.75
2022-08-16T08:02:41.103Z,22.85
2022-08-16T08:05:35.735Z,22.95
2022-08-16T08:08:50.145Z,22.87
2022-08-16T08:11:32.023Z,23.12
2022-08-16T08:14:30.091Z,23.06
2022-08-16T08:17:19.600Z,23.01
2022-08-16T08:20:11.340Z,23.07
2022-08-16T08:23:00.761Z,23.24
2022-08-16T08:25:55.316Z,23.38
2022-08-16T08:28:45.753Z,23.46
2022-08-16T08:31:32.628Z,23.44
2022-08-16T08:34:23.070Z,23.44
2022-08-16T08:37:11.217Z,23.79
2022-08-16T08:39:58.619Z,23.79
2022-08-16T08:42:48.054Z,23.90
2022-08-16T08:45:46.816Z,23.91
2022-08-16T08:48:36.764Z,24.14
2022-08-16T08:51:35.504Z,24.32
2022-08-16T08:54:25.352Z,24.54
2022-08-16T08:57:15.699Z,24.61
2022-08-16T09:00:26.910Z,24.67
2022-08-16T09:03:16.160Z,24.87
2022-08-16T09:06:06.964Z,24.87
2022-08-16T09:08:57.104Z,25.15
2022-08-16T09:11:52.358Z,25.29
2022-08-16T09:14:49.336Z,25.40
2022-08-16T09:17:49.069Z,25.53
2022-08-16T09:20:58.833Z,25.69
2022-08-16T09:23:45.856Z,25.69
2022-08-16T09:26:45.266Z,25.75
2022-08-16T09:29:45.296Z,25.72
2022-08-16T09:32:36.130Z,25.89
2022-08-16T09:35:23.806Z,25.90
2022-08-16T09:38:31.472Z,25.96
2022-08-16T09:41:19.329Z,26.00
2022-08-16T09:45:09.773Z,26.03
2022-08-16T09:47:16.448Z,26.12
2022-08-16T09:50:12.949Z,26.14
2022-08-16T09:53:15.240Z,26.22
2022-08-16T09:56:04.799Z,26.29
2022-08-16T09:59:03.540Z,26.41
2022-08-16T10:02:26.654Z,26.43
2022-08-16T10:05:19.834Z,26.50
2022-08-16T10:08:25.336Z,26.81
2022-08-16T10:11:30.386Z,26.89
2022-08-16T10:14:17.255Z,26.91
2022-08-16T10:17:07.161Z,26.94
2022-08-16T10:19:59.117Z,27.05
2022-08-16T10:22:46.249Z,27.07
2022-08-16T10:27:16.172Z,27.22
2022-08-16T10:28:42.047Z,27.27
2022-08-16T10:31:43.752Z,27.14
2022-08-16T10:34:32.830Z,27.20
2022-08-16T10:37:32.823Z,27.27
2022-08-16T10:40:29.396Z,27.26
2022-08-16T10:43:18.619Z,27.37
2022-08-16T10:46:39.141Z,27.27
2022-08-16T10:49:15.730Z,27.38
2022-08-16T10:52:18.452Z,27.45
2022-08-16T10:58:17.403Z,27.41
2022-08-16T11:22:59.081Z,27.96
2022-08-16T11:26:22.792Z,28.01
2022-08-16T11:29:13.879Z,28.22
2022-08-16T11:32:00.779Z,27.99
2022-08-16T11:35:09.924Z,27.83
2022-08-16T11:38:47.605Z,27.86
2022-08-16T11:41:05.331Z,27.72
2022-08-16T11:43:54.025Z,27.54
2022-08-16T11:46:47.276Z,27.60
2022-08-16T11:49:37.269Z,27.78
2022-08-16T11:52:24.257Z,27.86
2022-08-16T11:55:14.815Z,28.05
2022-08-16T11:58:03.895Z,28.19
2022-08-16T12:00:53.106Z,28.32
2022-08-16T12:03:41.786Z,28.35
2022-08-16T12:06:30.587Z,28.41
2022-08-16T12:09:17.855Z,28.44
2022-08-16T12:12:07.823Z,28.42
2022-08-16T12:14:59.460Z,28.44
2022-08-16T12:17:47.624Z,28.52
2022-08-16T12:20:41.808Z,28.56
2022-08-16T12:23:31.658Z,28.59
2022-08-16T12:26:18.456Z,28.63
2022-08-16T12:29:05.729Z,28.67
2022-08-16T12:32:00.959Z,28.68
2022-08-16T12:34:58.712Z,28.80
2022-08-16T12:37:47.334Z,28.84
2022-08-16T12:40:37.824Z,28.97
2022-08-16T12:43:31.216Z,29.14
2022-08-16T12:46:18.291Z,29.26
2022-08-16T12:49:06.523Z,29.29
2022-08-16T12:51:58.975Z,29.19
2022-08-16T12:54:54.809Z,29.32
2022-08-16T12:57:42.101Z,29.22
2022-08-16T13:00:32.341Z,28.98
2022-08-16T13:03:21.687Z,28.45
2022-08-16T13:06:12.366Z,28.11
2022-08-16T13:09:02.474Z,27.99
2022-08-16T13:12:00.433Z,28.17
2022-08-16T13:14:50.065Z,28.37
2022-08-16T13:17:37.799Z,28.73
2022-08-16T13:20:30.210Z,28.95
2022-08-16T13:23:19.367Z,28.92
2022-08-16T13:26:09.843Z,28.89
2022-08-16T13:28:56.809Z,28.84
2022-08-16T13:31:43.371Z,28.90
2022-08-16T13:34:30.118Z,28.73
2022-08-16T13:37:17.364Z,28.51
2022-08-16T13:40:08.072Z,28.35
2022-08-16T13:42:56.522Z,28.20
2022-08-16T13:45:44.694Z,28.20
2022-08-16T13:48:43.368Z,27.90
2022-08-16T13:51:32.353Z,27.54
2022-08-16T13:54:19.087Z,27.31
2022-08-16T13:57:07.495Z,27.17
2022-08-16T13:59:58.760Z,27.10
2022-08-16T14:02:47.187Z,27.16
2022-08-16T14:05:35.618Z,27.13
2022-08-16T14:08:26.671Z,27.11
2022-08-16T14:11:15.556Z,26.96
2022-08-16T14:14:05.292Z,26.86
2022-08-16T14:16:52.716Z,26.95
2022-08-16T14:19:44.760Z,26.82
2022-08-16T14:22:35.819Z,26.80
2022-08-16T14:25:29.501Z,26.78
2022-08-16T14:28:16.886Z,26.83
2022-08-16T14:31:05.196Z,26.82
2022-08-16T14:33:52.259Z,26.92
2022-08-16T14:36:40.822Z,27.26
2022-08-16T14:39:29.575Z,27.35
2022-08-16T14:42:19.095Z,27.62
2022-08-16T14:45:07.665Z,27.71
2022-08-16T14:47:56.058Z,27.43
2022-08-16T14:50:43.502Z,27.35
2022-08-16T14:53:32.631Z,27.16
2022-08-16T14:56:38.419Z,26.91
2022-08-16T14:59:27.286Z,26.72
2022-08-16T15:02:33.946Z,26.63
2022-08-16T15:05:24.453Z,26.68
2022-08-16T15:08:11.952Z,26.65
2022-08-16T15:11:02.081Z,26.75
2022-08-16T15:13:51.701Z,27.01
2022-08-16T15:16:39.693Z,27.11
2022-08-16T15:19:33.375Z,27.31
2022-08-16T15:22:29.899Z,27.57
2022-08-16T15:25:19.077Z,27.66
2022-08-16T15:28:10.772Z,27.77
2022-08-16T15:31:13.190Z,27.91
2022-08-16T15:34:01.121Z,28.13
2022-08-16T15:36:47.878Z,28.23
2022-08-16T15:39:39.620Z,28.03
2022-08-16T15:42:28.839Z,27.97
2022-08-16T15:45:38.073Z,27.78
2022-08-16T15:48:28.451Z,28.13
2022-08-16T15:51:15.943Z,28.07
2022-08-16T15:54:21.150Z,28.12
2022-08-16T15:57:12.296Z,28.27
2022-08-16T16:00:04.971Z,28.50
2022-08-16T16:03:03.490Z,28.79
2022-08-16T16:05:53.598Z,28.70
2022-08-16T16:08:42.572Z,28.69
2022-08-16T16:11:31.100Z,28.46
2022-08-16T16:14:20.372Z,28.18
2022-08-16T16:17:16.504Z,28.12
2022-08-16T16:20:05.171Z,27.84
2022-08-16T16:23:03.097Z,27.54
2022-08-16T16:25:50.260Z,27.38
2022-08-16T16:29:08.510Z,27.28
2022-08-16T16:31:59.009Z,27.23
2022-08-16T16:34:45.905Z,27.27
2022-08-16T16:37:32.675Z,27.13
2022-08-16T16:40:28.921Z,26.85
2022-08-16T16:43:19.294Z,26.71
2022-08-16T16:46:39.290Z,26.65
2022-08-16T16:49:21.931Z,26.56
2022-08-16T16:52:10.360Z,26.55
2022-08-16T16:55:00.039Z,26.52
2022-08-16T16:58:05.246Z,26.45
2022-08-16T17:01:04.742Z,26.27
2022-08-16T17:03:53.497Z,26.09
2022-08-16T17:06:43.226Z,26.05
2022-08-16T17:09:41.285Z,25.97
2022-08-16T17:12:47.127Z,25.84
2022-08-16T17:15:36.579Z,25.71
2022-08-16T17:19:14.590Z,25.59
2022-08-16T17:21:33.538Z,25.44
2022-08-16T17:24:39.862Z,25.28
2022-08-16T17:27:33.176Z,25.12
2022-08-16T17:30:45.495Z,24.95
2022-08-16T17:33:36.762Z,24.83
2022-08-16T17:36:36.631Z,24.71
2022-08-16T17:39:29.260Z,24.65
2022-08-16T17:42:18.090Z,24.58
2022-08-16T17:45:04.767Z,24.50
2022-08-16T17:47:51.950Z,24.35
2022-08-16T17:50:39.294Z,24.26
2022-08-16T17:53:26.553Z,24.14
2022-08-16T17:56:16.697Z,24.03
2022-08-16T17:59:03.418Z,23.96
2022-08-16T18:01:50.690Z,23.88
2022-08-16T18:04:49.920Z,23.82
2022-08-16T18:07:37.682Z,23.72
2022-08-16T18:10:33.275Z,23.63
2022-08-16T18:13:24.262Z,23.56
2022-08-16T18:16:11.030Z,23.45
2022-08-16T18:18:57.735Z,23.32
2022-08-16T18:22:02.365Z,23.21
2022-08-16T18:24:50.002Z,23.14
2022-08-16T18:27:36.996Z,23.07
2022-08-16T18:30:24.938Z,22.96
2022-08-16T18:33:11.958Z,22.87
2022-08-16T18:35:58.567Z,22.78
2022-08-16T18:38:45.286Z,22.69
2022-08-16T18:41:37.192Z,22.59
2022-08-16T18:44:29.271Z,22.52
2022-08-16T18:47:20.025Z,22.41
2022-08-16T18:50:07.700Z,22.32
2022-08-16T18:52:56.499Z,22.20
2022-08-16T18:55:45.518Z,22.09
2022-08-16T18:58:34.018Z,22.03
2022-08-16T19:01:21.604Z,21.90
2022-08-16T19:04:56.503Z,21.82
2022-08-16T19:07:16.196Z,21.78
2022-08-16T19:10:03.664Z,21.69
2022-08-16T19:12:50.872Z,21.59
2022-08-16T19:15:38.012Z,21.49
2022-08-16T19:18:25.684Z,21.42
2022-08-16T19:21:14.642Z,21.37
2022-08-16T19:24:02.395Z,21.31
2022-08-16T19:26:51.063Z,21.25
2022-08-16T19:29:37.623Z,21.20
2022-08-16T19:32:28.382Z,21.06
2022-08-16T19:35:16.322Z,21.13
2022-08-16T19:38:05.323Z,21.00
2022-08-16T19:40:52.127Z,20.94
2022-08-16T19:43:39.107Z,20.83
2022-08-16T19:46:25.943Z,20.75
2022-08-16T19:49:15.848Z,20.71
2022-08-16T19:52:11.521Z,20.62
2022-08-16T19:55:03.390Z,20.57
2022-08-16T19:57:50.287Z,20.52
2022-08-16T20:00:39.007Z,20.46
2022-08-16T20:03:27.093Z,20.40
2022-08-16T20:06:37.807Z,20.37
2022-08-16T20:09:25.850Z,20.34
2022-08-16T20:12:17.300Z,20.34
2022-08-16T20:15:06.293Z,20.23
2022-08-16T20:17:54.311Z,20.18
2022-08-16T20:20:42.912Z,20.13
2022-08-16T20:23:30.454Z,20.10
2022-08-16T20:26:19.091Z,20.01
2022-08-16T20:29:08.203Z,19.95
2022-08-16T20:31:55.501Z,19.89
2022-08-16T20:34:43.088Z,19.77
2022-08-16T20:37:32.870Z,19.76
2022-08-16T20:40:34.331Z,19.63
2022-08-16T20:43:23.139Z,19.56
2022-08-16T20:46:12.592Z,19.54
2022-08-16T20:49:01.304Z,19.49
2022-08-16T20:51:53.453Z,19.46
2022-08-16T20:54:44.334Z,19.41
2022-08-16T20:57:32.951Z,19.37
2022-08-16T21:00:20.433Z,19.34
2022-08-16T21:03:10.265Z,19.38
2022-08-16T21:05:59.179Z,19.29
2022-08-16T21:08:53.034Z,19.19
2022-08-16T21:11:40.870Z,19.12
2022-08-16T21:14:27.936Z,19.07
2022-08-16T21:17:17.443Z,19.03
2022-08-16T21:20:08.557Z,18.99
2022-08-16T21:22:57.203Z,18.96
2022-08-16T21:25:59.103Z,18.96
2022-08-16T21:28:46.328Z,18.94
2022-08-16T21:31:33.207Z,18.91
2022-08-16T21:34:20.022Z,18.88
2022-08-16T21:37:08.425Z,18.82
2022-08-16T21:39:55.266Z,18.76
2022-08-16T21:42:44.209Z,18.73
2022-08-16T21:45:31.146Z,18.69
2022-08-16T21:48:34.392Z,18.66
2022-08-16T21:51:22.604Z,18.63
2022-08-16T21:54:10.980Z,18.59
2022-08-16T21:56:57.510Z,18.58
2022-08-16T21:59:44.292Z,18.50
2022-08-16T22:02:35.633Z,18.41
2022-08-16T22:05:25.868Z,18.33
2022-08-16T22:08:16.835Z,18.28
2022-08-16T22:11:09.315Z,18.25
2022-08-16T22:13:58.528Z,18.24
2022-08-16T22:16:47.269Z,18.23
2022-08-16T22:19:34.180Z,18.19
2022-08-16T22:22:20.915Z,18.16
2022-08-16T22:25:08.238Z,18.13
2022-08-16T22:27:56.460Z,18.10
2022-08-16T22:30:43.716Z,18.09
2022-08-16T22:33:30.377Z,18.06
2022-08-16T22:36:17.259Z,18.02
2022-08-16T22:39:07.797Z,18.00
2022-08-16T22:41:54.546Z,17.97
2022-08-16T22:44:46.260Z,17.95
2022-08-16T22:47:33.595Z,17.92
2022-08-16T22:50:20.439Z,17.89
2022-08-16T22:53:07.423Z,17.87
2022-08-16T22:55:54.317Z,17.85
2022-08-16T22:58:43.957Z,17.81
2022-08-16T23:01:32.491Z,17.80
2022-08-16T23:04:19.357Z,17.80
2022-08-16T23:07:06.764Z,17.77
2022-08-16T23:09:53.669Z,17.71
2022-08-16T23:12:48.684Z,17.66
2022-08-16T23:15:41.865Z,17.60
2022-08-16T23:18:31.624Z,17.57
2022-08-16T23:21:22.826Z,17.52
2022-08-16T23:24:15.323Z,17.52
2022-08-16T23:27:03.335Z,17.51
2022-08-16T23:29:50.299Z,17.52
2022-08-16T23:32:44.911Z,17.51
2022-08-16T23:35:45.385Z,17.47
2022-08-16T23:38:37.486Z,17.47
2022-08-16T23:41:25.726Z,17.45
2022-08-16T23:44:42.307Z,17.46
2022-08-16T23:47:19.011Z,17.40
2022-08-16T23:50:07.517Z,17.35
2022-08-16T23:53:04.298Z,17.32
2022-08-16T23:55:52.970Z,17.28
2022-08-16T23:58:42.000Z,17.28
